Time;durP1;ratioP1;P1;durP2;ratioP2;P2;SDS_P1;SDS_P2;PMS_P1;PMS_P2;Temp;Humidity;BMP_temperature;BMP_pressure;BME280_temperature;BME280_humidity;BME280_pressure;Samples;Min_cycle;Max_cycle;Signal;HPM_P1;HPM_P2
2023/12/17 00:01:03;;;;;;;8.68;4.80;;;9.80;99.90;;;;;;5022779;28;20049;-67
2023/12/17 00:03:28;;;;;;;11.32;5.32;;;9.80;99.90;;;;;;5023754;28;20041;-67
2023/12/17 00:05:54;;;;;;;10.32;5.20;;;9.80;99.90;;;;;;5023608;28;20050;-67
2023/12/17 00:08:21;;;;;;;10.82;4.13;;;9.80;99.90;;;;;;5023187;28;20037;-67
2023/12/17 00:10:47;;;;;;;9.27;4.63;;;9.80;99.90;;;;;;5020283;28;20045;-67
2023/12/17 00:13:13;;;;;;;13.30;5.07;;;9.80;99.90;;;;;;5023990;28;20520;-67
2023/12/17 00:15:39;;;;;;;8.88;5.07;;;9.80;99.90;;;;;;5022529;28;20148;-67
2023/12/17 00:18:06;;;;;;;8.45;5.07;;;9.70;99.90;;;;;;5024591;28;20048;-67
2023/12/17 00:20:32;;;;;;;10.93;4.60;;;9.80;99.90;;;;;;5023719;28;20038;-67
2023/12/17 00:22:58;;;;;;;8.23;5.63;;;9.70;99.90;;;;;;5024662;28;20069;-67
2023/12/17 00:25:23;;;;;;;16.67;4.20;;;9.70;99.90;;;;;;5023780;28;20476;-66
2023/12/17 00:27:49;;;;;;;14.63;5.35;;;9.70;99.90;;;;;;5019629;28;20038;-67
2023/12/17 00:30:14;;;;;;;11.63;5.82;;;9.70;99.90;;;;;;5024739;28;20045;-67
2023/12/17 00:32:40;;;;;;;9.15;4.55;;;9.80;99.90;;;;;;5020722;28;20076;-67
2023/12/17 00:35:06;;;;;;;12.90;4.90;;;9.80;99.90;;;;;;5023448;28;20045;-67
2023/12/17 00:37:31;;;;;;;11.57;4.95;;;9.80;99.90;;;;;;5022708;28;20068;-67
2023/12/17 00:39:57;;;;;;;11.82;4.47;;;9.70;99.90;;;;;;5023612;28;20041;-67
2023/12/17 00:42:23;;;;;;;12.40;5.28;;;9.70;99.90;;;;;;5020120;28;20467;-67
2023/12/17 00:44:48;;;;;;;13.25;5.45;;;9.80;99.90;;;;;;5021443;28;20120;-67
2023/12/17 00:47:14;;;;;;;9.65;4.82;;;9.70;99.90;;;;;;5021991;28;20056;-67
2023/12/17 00:49:39;;;;;;;10.70;5.07;;;9.70;99.90;;;;;;5023035;28;20072;-67
2023/12/17 00:52:05;;;;;;;11.82;4.75;;;9.80;99.90;;;;;;5022280;28;20037;-67
2023/12/17 00:54:31;;;;;;;9.88;4.80;;;9.70;99.90;;;;;;5038709;28;20037;-67
2023/12/17 00:56:56;;;;;;;10.13;5.10;;;9.70;99.90;;;;;;5024939;28;20048;-67
2023/12/17 00:59:22;;;;;;;9.38;5.00;;;9.70;99.90;;;;;;5023491;28;20044;-67
2023/12/17 01:01:47;;;;;;;15.70;5.03;;;9.70;99.90;;;;;;5021461;28;20383;-67
2023/12/17 01:04:13;;;;;;;11.57;4.72;;;9.70;99.90;;;;;;5019799;28;20060;-67
2023/12/17 01:06:38;;;;;;;9.85;4.82;;;9.80;99.90;;;;;;5023887;28;20045;-67
2023/12/17 01:09:04;;;;;;;8.23;4.60;;;9.80;99.90;;;;;;5022397;28;20037;-67
2023/12/17 01:11:30;;;;;;;6.80;3.95;;;9.80;99.90;;;;;;5021997;28;20042;-67
2023/12/17 01:13:55;;;;;;;8.65;4.72;;;9.70;99.90;;;;;;5024276;28;20057;-67
2023/12/17 01:16:21;;;;;;;8.50;3.92;;;9.80;99.90;;;;;;5021387;28;20041;-67
2023/12/17 01:18:46;;;;;;;13.68;4.72;;;9.80;99.90;;;;;;5024331;28;20482;-66
2023/12/17 01:21:12;;;;;;;10.80;4.57;;;10.00;99.90;;;;;;5021794;28;20033;-67
2023/12/17 01:23:38;;;;;;;10.10;5.28;;;9.80;99.90;;;;;;5022841;28;20057;-67
2023/12/17 01:26:04;;;;;;;9.25;4.30;;;9.70;99.90;;;;;;5025619;28;20064;-67
2023/12/17 01:28:30;;;;;;;8.35;4.53;;;9.80;99.90;;;;;;5025363;28;20446;-67
2023/12/17 01:30:55;;;;;;;12.63;4.68;;;9.80;99.90;;;;;;5028772;28;20034;-67
2023/12/17 01:33:21;;;;;;;12.13;4.97;;;9.80;99.90;;;;;;5027282;28;20045;-67
2023/12/17 01:35:46;;;;;;;10.77;5.30;;;10.00;99.90;;;;;;5025179;28;20395;-67
2023/12/17 01:38:12;;;;;;;11.05;4.55;;;9.80;99.90;;;;;;5022943;28;20099;-67
2023/12/17 01:40:39;;;;;;;14.13;4.57;;;9.80;99.90;;;;;;5022504;28;20048;-67
2023/12/17 01:43:08;;;;;;;9.95;5.50;;;9.80;99.90;;;;;;5027407;28;20041;-67
2023/12/17 01:45:33;;;;;;;10.68;4.80;;;9.90;99.90;;;;;;5022901;28;20052;-67
2023/12/17 01:47:59;;;;;;;15.80;5.85;;;9.90;99.90;;;;;;5027785;28;20049;-67
2023/12/17 01:50:26;;;;;;;13.32;4.97;;;9.90;99.90;;;;;;5026442;28;20479;-67
2023/12/17 01:52:52;;;;;;;12.65;4.70;;;9.80;99.90;;;;;;5023556;28;20081;-67
2023/12/17 01:55:18;;;;;;;14.10;5.55;;;9.80;99.90;;;;;;5025858;28;20120;-67
2023/12/17 01:57:43;;;;;;;12.25;5.07;;;10.00;99.90;;;;;;5024761;28;20129;-66
2023/12/17 02:00:11;;;;;;;10.00;4.85;;;9.80;99.90;;;;;;5027339;28;20061;-67
2023/12/17 02:02:36;;;;;;;11.05;4.97;;;9.80;99.90;;;;;;5025666;28;20041;-67
2023/12/17 02:05:05;;;;;;;11.60;4.40;;;9.80;99.90;;;;;;5023327;28;20052;-67
2023/12/17 02:07:34;;;;;;;10.43;5.05;;;9.80;99.90;;;;;;5041189;28;20041;-67
2023/12/17 02:09:59;;;;;;;11.68;5.00;;;9.90;99.90;;;;;;5025038;28;20136;-67
2023/12/17 02:12:29;;;;;;;14.00;5.05;;;9.80;99.90;;;;;;5024548;28;20571;-67
2023/12/17 02:14:55;;;;;;;14.23;5.22;;;9.90;99.90;;;;;;5027423;28;20100;-67
2023/12/17 02:17:31;;;;;;;11.85;5.80;;;9.80;99.90;;;;;;5022589;28;20491;-67
2023/12/17 02:19:57;;;;;;;14.10;6.45;;;9.90;99.90;;;;;;5041856;28;20041;-67
2023/12/17 02:22:24;;;;;;;16.25;6.00;;;10.10;99.90;;;;;;5029614;28;20060;-66
2023/12/17 02:24:53;;;;;;;14.85;5.57;;;9.80;99.90;;;;;;5025578;28;20038;-67
2023/12/17 02:27:23;;;;;;;13.88;5.15;;;9.90;99.90;;;;;;5026870;28;20522;-67
2023/12/17 02:29:50;;;;;;;13.52;5.63;;;9.90;99.90;;;;;;5023549;28;20025;-67
2023/12/17 02:32:17;;;;;;;12.73;6.68;;;10.20;99.90;;;;;;5024942;28;20041;-67
2023/12/17 02:34:43;;;;;;;12.18;5.80;;;9.90;99.90;;;;;;5021115;28;20045;-67
2023/12/17 02:37:08;;;;;;;14.10;5.93;;;9.90;99.90;;;;;;5022614;28;20037;-67
2023/12/17 02:39:34;;;;;;;10.30;5.57;;;9.90;99.90;;;;;;5020641;28;20042;-67
2023/12/17 02:42:00;;;;;;;13.35;6.30;;;10.10;99.90;;;;;;5023246;28;20029;-67
2023/12/17 02:44:25;;;;;;;11.20;6.50;;;9.90;99.90;;;;;;5027534;28;20106;-67
2023/12/17 02:46:51;;;;;;;12.30;5.90;;;9.90;99.90;;;;;;5022954;28;20060;-67
2023/12/17 02:49:17;;;;;;;8.93;5.00;;;9.90;99.90;;;;;;5022789;28;20050;-67
2023/12/17 02:51:43;;;;;;;10.82;5.60;;;9.90;99.90;;;;;;5023690;28;20038;-67
2023/12/17 02:54:08;;;;;;;10.80;4.65;;;9.90;99.90;;;;;;5023136;28;20187;-67
2023/12/17 02:56:41;;;;;;;14.98;6.07;;;9.90;99.90;;;;;;5021707;28;20510;-67
2023/12/17 02:59:11;;;;;;;16.88;5.65;;;9.80;99.90;;;;;;5022688;28;20041;-67
2023/12/17 03:01:37;;;;;;;13.73;5.57;;;9.90;99.90;;;;;;5021289;28;20037;-67
2023/12/17 03:04:03;;;;;;;10.73;5.90;;;9.90;99.90;;;;;;5022509;28;20048;-66
2023/12/17 03:06:29;;;;;;;11.25;4.90;;;9.90;99.90;;;;;;5019529;28;20128;-67
2023/12/17 03:08:55;;;;;;;9.75;5.03;;;9.90;99.90;;;;;;5026679;28;20085;-67
2023/12/17 03:11:20;;;;;;;10.02;4.63;;;10.00;99.90;;;;;;5023352;28;20423;-67
2023/12/17 03:13:46;;;;;;;12.02;5.15;;;10.00;99.90;;;;;;5024163;28;20052;-67
2023/12/17 03:16:11;;;;;;;10.15;4.10;;;9.90;99.90;;;;;;5023812;28;20555;-67
2023/12/17 03:18:37;;;;;;;11.38;4.43;;;9.90;99.90;;;;;;5028059;28;20132;-67
2023/12/17 03:21:05;;;;;;;12.18;5.25;;;9.90;99.90;;;;;;5020160;28;20048;-67
2023/12/17 03:23:31;;;;;;;9.73;4.00;;;9.90;99.90;;;;;;5024998;28;20026;-67
2023/12/17 03:25:57;;;;;;;8.82;4.55;;;9.90;99.90;;;;;;5022948;28;20052;-67
2023/12/17 03:28:22;;;;;;;12.55;4.80;;;10.00;99.90;;;;;;5026164;28;20084;-67
2023/12/17 03:30:48;;;;;;;8.68;4.78;;;9.90;99.90;;;;;;5025050;28;20041;-67
2023/12/17 03:33:13;;;;;;;10.52;4.55;;;9.90;99.90;;;;;;5023433;28;20484;-67
2023/12/17 03:35:39;;;;;;;10.40;4.28;;;9.90;99.90;;;;;;5019677;28;20041;-67
2023/12/17 03:38:05;;;;;;;9.68;4.55;;;10.00;99.90;;;;;;5027331;28;20037;-67
2023/12/17 03:40:31;;;;;;;8.73;4.22;;;9.90;99.90;;;;;;5019105;28;20258;-67
2023/12/17 03:42:57;;;;;;;10.20;5.30;;;9.90;99.90;;;;;;5022796;28;20499;-67
2023/12/17 03:45:22;;;;;;;12.38;4.57;;;9.90;99.90;;;;;;5019527;28;20046;-67
2023/12/17 03:47:48;;;;;;;12.77;4.97;;;9.90;99.90;;;;;;5022227;28;20037;-67
2023/12/17 03:50:19;;;;;;;9.38;4.30;;;9.90;99.90;;;;;;5019804;28;20507;-67
2023/12/17 03:52:46;;;;;;;11.68;4.03;;;10.00;99.90;;;;;;5019746;28;20163;-67
2023/12/17 03:55:13;;;;;;;9.98;4.28;;;9.90;99.90;;;;;;5021752;28;20420;-67
2023/12/17 03:57:39;;;;;;;12.82;4.22;;;9.90;99.90;;;;;;5021073;28;20041;-67
2023/12/17 04:00:05;;;;;;;11.40;4.88;;;9.90;99.90;;;;;;5021073;28;20034;-67
2023/12/17 04:02:31;;;;;;;11.23;3.90;;;9.90;99.90;;;;;;5019782;28;20381;-67
2023/12/17 04:04:57;;;;;;;9.82;3.80;;;9.90;99.90;;;;;;5022783;28;20064;-67
2023/12/17 04:07:22;;;;;;;8.35;4.28;;;9.90;99.90;;;;;;5021911;28;20436;-67
2023/12/17 04:09:48;;;;;;;10.00;4.60;;;9.90;99.90;;;;;;5020126;28;20042;-67
2023/12/17 04:12:14;;;;;;;7.93;4.28;;;9.90;99.90;;;;;;5022139;28;20061;-67
2023/12/17 04:14:40;;;;;;;10.48;4.28;;;9.90;99.90;;;;;;5022491;28;20120;-67
2023/12/17 04:17:07;;;;;;;7.85;4.47;;;9.80;99.90;;;;;;5023772;28;20447;-67
2023/12/17 04:19:32;;;;;;;7.28;3.97;;;9.90;99.90;;;;;;5020383;28;20396;-67
2023/12/17 04:21:58;;;;;;;11.13;4.40;;;9.90;99.90;;;;;;5015930;28;20045;-67
2023/12/17 04:24:24;;;;;;;5.88;4.05;;;9.90;99.90;;;;;;5020746;28;20049;-67
2023/12/17 04:26:50;;;;;;;10.43;3.67;;;9.90;99.90;;;;;;5019578;28;20033;-67
2023/12/17 04:29:15;;;;;;;8.48;3.45;;;9.80;99.90;;;;;;5023327;28;20593;-67
2023/12/17 04:31:41;;;;;;;7.68;3.63;;;9.80;99.90;;;;;;5023595;28;20072;-66
2023/12/17 04:34:08;;;;;;;6.28;3.72;;;9.90;99.90;;;;;;5022337;28;20049;-67
2023/12/17 04:36:34;;;;;;;7.15;3.30;;;9.90;99.90;;;;;;5018824;28;20440;-67
2023/12/17 04:39:00;;;;;;;8.48;3.13;;;9.90;99.90;;;;;;5022366;28;20052;-67
2023/12/17 04:41:26;;;;;;;9.95;4.07;;;9.90;99.90;;;;;;5022727;28;20037;-67
2023/12/17 04:43:51;;;;;;;11.63;3.47;;;9.90;99.90;;;;;;5019948;28;20029;-67
2023/12/17 04:46:18;;;;;;;7.03;3.78;;;9.90;99.90;;;;;;5021064;28;20029;-67
2023/12/17 04:48:43;;;;;;;9.45;3.40;;;9.90;99.90;;;;;;5021585;28;20045;-67
2023/12/17 04:51:09;;;;;;;10.05;4.47;;;9.90;99.90;;;;;;5022317;28;20381;-67
2023/12/17 04:53:34;;;;;;;7.40;3.15;;;9.90;99.90;;;;;;5023170;28;20025;-67
2023/12/17 04:56:00;;;;;;;8.25;4.10;;;9.90;99.90;;;;;;5020432;28;20120;-67
2023/12/17 04:58:26;;;;;;;7.50;3.10;;;9.90;99.90;;;;;;5010264;28;20045;-67
2023/12/17 05:00:51;;;;;;;8.05;3.08;;;9.80;99.90;;;;;;5018237;28;20488;-67
2023/12/17 05:03:17;;;;;;;11.25;4.50;;;9.80;99.90;;;;;;5023498;28;20034;-67
2023/12/17 05:05:43;;;;;;;9.70;3.75;;;9.80;99.90;;;;;;5023254;28;20041;-67
2023/12/17 05:08:08;;;;;;;6.10;3.17;;;9.70;99.90;;;;;;5021483;28;20038;-67
2023/12/17 05:10:34;;;;;;;7.07;3.05;;;9.70;99.90;;;;;;5020191;28;20444;-67
2023/12/17 05:12:59;;;;;;;8.20;2.80;;;9.80;99.90;;;;;;5021717;28;20091;-67
2023/12/17 05:15:25;;;;;;;10.35;2.97;;;9.80;99.90;;;;;;5021543;28;20088;-67
2023/12/17 05:17:50;;;;;;;4.38;2.22;;;9.80;99.90;;;;;;5021019;28;20033;-67
2023/12/17 05:20:16;;;;;;;9.13;2.55;;;9.80;99.90;;;;;;5021345;28;21450;-67
2023/12/17 05:22:41;;;;;;;6.80;2.67;;;9.80;99.90;;;;;;5021778;28;20116;-67
2023/12/17 05:25:07;;;;;;;6.55;2.15;;;9.80;99.90;;;;;;5024248;28;20046;-67
2023/12/17 05:27:33;;;;;;;6.65;2.10;;;9.70;99.90;;;;;;5023301;28;20096;-67
2023/12/17 05:29:59;;;;;;;9.02;2.58;;;9.80;99.90;;;;;;5017289;28;20049;-67
2023/12/17 05:32:24;;;;;;;5.00;2.42;;;9.70;99.90;;;;;;5021626;28;20030;-67
2023/12/17 05:34:50;;;;;;;8.75;2.88;;;9.70;99.90;;;;;;5022256;28;20093;-67
2023/12/17 05:37:16;;;;;;;5.75;2.53;;;9.70;99.90;;;;;;5026405;28;20049;-67
2023/12/17 05:39:41;;;;;;;7.43;2.70;;;9.70;99.90;;;;;;5035953;28;20095;-67
2023/12/17 05:42:07;;;;;;;7.22;2.80;;;9.70;99.90;;;;;;5018171;28;20480;-67
2023/12/17 05:44:34;;;;;;;8.35;2.85;;;9.70;99.90;;;;;;5021413;28;20045;-67
2023/12/17 05:46:59;;;;;;;6.75;2.47;;;10.00;99.90;;;;;;5017577;28;20046;-67
2023/12/17 05:49:25;;;;;;;8.20;2.30;;;9.70;99.90;;;;;;5019660;28;20057;-66
2023/12/17 05:51:50;;;;;;;8.13;2.45;;;9.70;99.90;;;;;;5019591;28;20132;-67
2023/12/17 05:54:16;;;;;;;5.00;2.15;;;9.70;99.90;;;;;;5023364;28;20483;-67
2023/12/17 05:56:42;;;;;;;5.35;2.45;;;9.60;99.90;;;;;;5019449;28;20033;-67
2023/12/17 05:59:08;;;;;;;6.28;2.63;;;9.70;99.90;;;;;;5020998;28;20118;-67
2023/12/17 06:01:33;;;;;;;5.80;1.92;;;9.60;99.90;;;;;;5018752;28;20080;-67
2023/12/17 06:03:59;;;;;;;6.22;1.83;;;10.00;99.90;;;;;;5024930;28;20103;-67
2023/12/17 06:06:26;;;;;;;5.90;1.77;;;9.60;99.90;;;;;;5020893;28;20116;-67
2023/12/17 06:08:52;;;;;;;7.25;1.92;;;9.60;99.90;;;;;;5020796;28;20554;-67
2023/12/17 06:11:17;;;;;;;8.57;1.80;;;9.60;99.90;;;;;;5021328;28;20034;-67
2023/12/17 06:13:43;;;;;;;9.05;1.77;;;9.50;99.90;;;;;;5021100;28;20396;-66
2023/12/17 06:16:09;;;;;;;5.75;1.85;;;9.50;99.90;;;;;;5021345;28;20037;-67
2023/12/17 06:18:35;;;;;;;4.65;1.67;;;9.50;99.90;;;;;;5022151;28;20042;-67
2023/12/17 06:21:01;;;;;;;6.97;1.75;;;9.50;99.90;;;;;;5021685;28;20037;-67
2023/12/17 06:23:27;;;;;;;6.00;1.40;;;9.50;99.90;;;;;;5021199;28;20045;-66
2023/12/17 06:25:53;;;;;;;5.80;1.77;;;9.50;99.90;;;;;;5018774;28;20052;-67
2023/12/17 06:28:24;;;;;;;5.10;1.50;;;9.50;99.90;;;;;;5034355;28;20091;-67
2023/12/17 06:30:49;;;;;;;7.85;1.92;;;9.50;99.90;;;;;;5020939;28;20045;-67
2023/12/17 06:33:15;;;;;;;10.77;2.97;;;9.50;99.90;;;;;;5022282;28;20041;-67
2023/12/17 06:35:41;;;;;;;10.07;3.80;;;9.50;99.90;;;;;;5018064;28;20180;-67
2023/12/17 06:38:06;;;;;;;4.88;3.20;;;9.50;99.90;;;;;;5017026;28;20373;-67
2023/12/17 06:40:32;;;;;;;8.90;3.35;;;9.50;99.90;;;;;;5024275;28;20037;-67
2023/12/17 06:42:57;;;;;;;8.35;4.00;;;9.40;99.90;;;;;;5018464;28;20614;-67
2023/12/17 06:45:23;;;;;;;8.85;4.32;;;9.50;99.90;;;;;;5024844;28;20546;-67
2023/12/17 06:47:49;;;;;;;5.90;3.97;;;9.50;99.90;;;;;;5019050;28;20045;-67
2023/12/17 06:50:15;;;;;;;9.45;3.83;;;9.50;99.90;;;;;;5019006;28;20503;-67
2023/12/17 06:52:41;;;;;;;8.73;4.43;;;9.50;99.90;;;;;;5018252;28;20041;-67
2023/12/17 06:55:07;;;;;;;9.90;4.53;;;9.50;99.90;;;;;;5019079;28;20048;-67
2023/12/17 06:57:33;;;;;;;9.75;4.68;;;9.50;99.90;;;;;;5024559;28;20397;-67
2023/12/17 06:59:59;;;;;;;9.50;4.97;;;9.50;99.90;;;;;;5016941;28;20042;-67
2023/12/17 07:02:24;;;;;;;10.60;4.28;;;9.50;99.90;;;;;;5020273;28;20103;-67
2023/12/17 07:04:50;;;;;;;13.68;5.05;;;9.50;99.90;;;;;;5018473;28;20076;-67
2023/12/17 07:07:16;;;;;;;5.30;3.67;;;9.50;99.90;;;;;;5020472;28;20044;-66
2023/12/17 07:09:42;;;;;;;5.78;3.30;;;9.50;99.90;;;;;;5018915;28;20120;-67
2023/12/17 07:12:09;;;;;;;10.32;3.78;;;9.50;99.90;;;;;;5018315;28;20148;-67
2023/12/17 07:14:34;;;;;;;9.63;4.10;;;9.50;99.90;;;;;;5018413;28;20776;-66
2023/12/17 07:17:00;;;;;;;10.73;4.03;;;9.50;99.90;;;;;;5017782;28;20081;-67
2023/12/17 07:19:25;;;;;;;7.47;3.95;;;9.50;99.90;;;;;;5023682;28;20041;-67
2023/12/17 07:21:51;;;;;;;9.77;3.83;;;9.50;99.90;;;;;;5018381;28;20034;-67
2023/12/17 07:24:17;;;;;;;10.77;3.88;;;9.50;99.90;;;;;;5025287;28;20399;-67
2023/12/17 07:26:42;;;;;;;8.25;4.13;;;9.50;99.90;;;;;;5016945;28;20034;-66
2023/12/17 07:29:08;;;;;;;10.30;4.30;;;9.50;99.90;;;;;;5018925;28;21802;-66
2023/12/17 07:31:34;;;;;;;7.70;4.65;;;9.50;99.90;;;;;;5014710;28;20071;-67
2023/12/17 07:33:59;;;;;;;16.38;6.32;;;9.50;99.90;;;;;;5033716;28;20049;-67
2023/12/17 07:36:25;;;;;;;9.35;5.53;;;9.50;99.90;;;;;;5021427;28;20046;-67
2023/12/17 07:38:51;;;;;;;12.73;6.03;;;9.50;99.90;;;;;;5016525;28;20042;-67
2023/12/17 07:41:16;;;;;;;8.85;6.53;;;9.50;99.90;;;;;;5021726;28;20391;-67
2023/12/17 07:43:43;;;;;;;11.30;6.85;;;9.50;99.90;;;;;;5014460;28;20044;-67
2023/12/17 07:46:08;;;;;;;12.52;7.15;;;9.40;99.90;;;;;;5020604;28;20042;-67
2023/12/17 07:48:34;;;;;;;12.25;7.70;;;9.40;99.90;;;;;;5017272;28;20093;-67
2023/12/17 07:51:01;;;;;;;9.15;6.97;;;9.50;99.90;;;;;;5019205;28;20050;-67
2023/12/17 07:53:27;;;;;;;9.80;5.72;;;9.40;99.90;;;;;;5021027;28;20037;-67
2023/12/17 07:55:57;;;;;;;11.15;5.38;;;9.40;99.90;;;;;;5016328;28;20033;-67
2023/12/17 07:58:28;;;;;;;9.30;5.22;;;9.40;99.90;;;;;;5008911;28;20466;-67
2023/12/17 08:00:54;;;;;;;12.05;4.82;;;9.40;99.90;;;;;;5014431;28;20073;-67
2023/12/17 08:03:23;;;;;;;13.30;5.32;;;9.40;99.90;;;;;;5020943;28;20083;-67
2023/12/17 08:05:49;;;;;;;14.80;5.32;;;9.80;99.90;;;;;;5018156;28;20041;-67
2023/12/17 08:08:15;;;;;;;10.65;5.63;;;9.40;99.90;;;;;;5019303;28;20130;-67
2023/12/17 08:10:41;;;;;;;9.35;6.00;;;9.30;99.90;;;;;;5020804;28;20182;-67
2023/12/17 08:13:07;;;;;;;9.93;5.38;;;9.30;99.90;;;;;;5019115;28;20044;-67
2023/12/17 08:15:32;;;;;;;11.60;5.68;;;9.30;99.90;;;;;;5026706;28;20073;-67
2023/12/17 08:17:58;;;;;;;14.77;5.97;;;9.40;99.90;;;;;;5019935;28;20384;-67
2023/12/17 08:20:23;;;;;;;12.13;5.72;;;9.40;99.90;;;;;;5018908;28;20037;-67
2023/12/17 08:22:49;;;;;;;14.45;6.40;;;9.40;99.90;;;;;;5019839;28;20046;-67
2023/12/17 08:25:15;;;;;;;10.82;5.32;;;9.30;99.90;;;;;;5032808;28;20041;-67
2023/12/17 08:27:41;;;;;;;15.73;6.32;;;9.30;99.90;;;;;;5018758;28;20059;-67
2023/12/17 08:30:07;;;;;;;15.18;5.78;;;9.40;99.90;;;;;;5021478;28;20045;-67
2023/12/17 08:32:33;;;;;;;14.23;5.97;;;9.30;99.90;;;;;;5020592;28;20041;-67
2023/12/17 08:34:59;;;;;;;15.05;6.50;;;9.40;99.90;;;;;;5038477;28;20085;-67
2023/12/17 08:37:26;;;;;;;13.70;6.60;;;9.40;99.90;;;;;;5021475;28;20034;-66
2023/12/17 08:39:55;;;;;;;14.02;6.35;;;9.30;99.90;;;;;;5022897;28;20041;-67
2023/12/17 08:42:21;;;;;;;15.55;6.10;;;9.40;99.90;;;;;;5020634;28;20033;-67
2023/12/17 08:44:47;;;;;;;12.60;6.60;;;9.40;99.90;;;;;;5020856;28;20045;-67
2023/12/17 08:47:13;;;;;;;12.50;7.03;;;9.40;99.90;;;;;;5004472;28;20054;-67
2023/12/17 08:49:38;;;;;;;11.52;6.90;;;9.40;99.90;;;;;;5022474;28;20036;-67
2023/12/17 08:52:04;;;;;;;14.85;7.47;;;9.40;99.90;;;;;;5017482;28;20091;-67
2023/12/17 08:54:30;;;;;;;13.30;7.88;;;9.40;99.90;;;;;;5034871;28;20048;-67
2023/12/17 08:56:56;;;;;;;17.52;8.43;;;9.40;99.90;;;;;;5017353;28;20436;-67
2023/12/17 08:59:21;;;;;;;11.43;9.25;;;9.40;99.90;;;;;;5022538;28;20155;-67
2023/12/17 09:01:48;;;;;;;19.77;9.07;;;9.50;99.90;;;;;;5019149;28;20037;-67
2023/12/17 09:04:13;;;;;;;18.90;10.52;;;9.50;99.90;;;;;;5019249;28;21376;-67
2023/12/17 09:06:47;;;;;;;20.02;10.63;;;9.50;99.90;;;;;;5017747;28;20075;-67
2023/12/17 09:09:13;;;;;;;18.52;11.93;;;9.50;99.90;;;;;;5015064;28;20479;-67
2023/12/17 09:11:39;;;;;;;19.65;10.85;;;9.50;99.90;;;;;;5022560;28;20150;-67
2023/12/17 09:14:07;;;;;;;20.63;12.30;;;9.50;99.90;;;;;;5017316;28;20038;-67
2023/12/17 09:16:37;;;;;;;18.13;12.35;;;9.50;99.90;;;;;;5019369;28;20038;-67
2023/12/17 09:19:03;;;;;;;22.30;12.70;;;9.60;99.90;;;;;;5018180;28;21274;-67
2023/12/17 09:21:29;;;;;;;17.23;11.98;;;9.60;99.90;;;;;;5018238;28;20126;-67
2023/12/17 09:23:54;;;;;;;23.85;14.75;;;9.60;99.90;;;;;;5019919;28;20045;-66
2023/12/17 09:26:20;;;;;;;20.17;13.20;;;9.60;99.90;;;;;;5020389;28;20116;-67
2023/12/17 09:28:45;;;;;;;21.85;14.00;;;9.60;99.90;;;;;;5020399;28;20042;-67
2023/12/17 09:31:11;;;;;;;24.60;13.35;;;9.50;99.90;;;;;;5016958;28;20034;-67
2023/12/17 09:33:38;;;;;;;19.70;11.93;;;9.70;99.90;;;;;;5021190;28;20033;-67
2023/12/17 09:36:05;;;;;;;17.63;11.70;;;9.60;99.90;;;;;;5016822;28;20468;-67
2023/12/17 09:38:31;;;;;;;19.23;11.30;;;9.50;99.90;;;;;;5021028;28;20125;-67
2023/12/17 09:40:56;;;;;;;16.63;12.32;;;9.60;99.90;;;;;;5019622;28;20132;-67
2023/12/17 09:43:25;;;;;;;20.23;12.63;;;9.60;99.90;;;;;;5017826;28;20042;-67
2023/12/17 09:45:51;;;;;;;20.48;14.23;;;9.60;99.90;;;;;;5026065;28;20136;-67
2023/12/17 09:48:20;;;;;;;27.85;14.55;;;9.60;99.90;;;;;;5020224;28;20084;-67
2023/12/17 09:50:47;;;;;;;18.90;13.20;;;9.60;99.90;;;;;;5020274;28;20054;-67
2023/12/17 09:53:13;;;;;;;20.13;13.20;;;9.60;99.90;;;;;;5020141;28;20574;-67
2023/12/17 09:55:38;;;;;;;18.35;13.55;;;9.70;99.90;;;;;;5024782;28;20140;-68
2023/12/17 09:58:05;;;;;;;19.98;14.30;;;9.60;99.90;;;;;;5019430;28;20057;-69
2023/12/17 10:00:31;;;;;;;22.23;15.07;;;9.60;99.90;;;;;;5023375;28;20707;-67
2023/12/17 10:03:04;;;;;;;28.95;16.15;;;9.60;99.90;;;;;;5025522;28;20044;-68
2023/12/17 10:05:31;;;;;;;25.52;16.77;;;9.90;99.90;;;;;;5020163;28;20076;-68
2023/12/17 10:07:57;;;;;;;25.30;16.75;;;9.60;99.90;;;;;;5022325;28;20058;-68
2023/12/17 10:10:23;;;;;;;22.95;16.05;;;9.60;99.90;;;;;;5020922;28;20081;-68
2023/12/17 10:12:50;;;;;;;26.92;16.65;;;9.60;99.90;;;;;;5024847;28;20082;-67
2023/12/17 10:15:16;;;;;;;25.65;17.88;;;9.60;99.90;;;;;;5018597;28;20041;-68
2023/12/17 10:17:41;;;;;;;22.77;16.13;;;9.60;99.90;;;;;;5026114;28;20260;-67
2023/12/17 10:20:08;;;;;;;21.48;15.50;;;9.50;99.90;;;;;;5018142;28;20049;-68
2023/12/17 10:22:33;;;;;;;17.80;14.32;;;9.60;99.90;;;;;;5020586;28;20522;-67
2023/12/17 10:24:59;;;;;;;19.17;15.65;;;9.50;99.90;;;;;;5040185;28;20045;-68
2023/12/17 10:27:25;;;;;;;21.98;15.38;;;9.60;99.90;;;;;;5023253;28;20049;-68
2023/12/17 10:29:52;;;;;;;24.73;16.95;;;9.80;99.90;;;;;;5025304;28;20040;-67
2023/12/17 10:32:23;;;;;;;21.08;16.45;;;9.60;99.90;;;;;;5026088;28;20056;-66
2023/12/17 10:34:53;;;;;;;18.70;14.63;;;9.60;99.90;;;;;;5024609;28;20120;-66
2023/12/17 10:37:20;;;;;;;16.55;13.77;;;9.60;99.90;;;;;;5026941;28;20083;-66
2023/12/17 10:39:50;;;;;;;14.10;12.25;;;9.60;99.90;;;;;;5023326;28;20041;-66
2023/12/17 10:42:17;;;;;;;13.18;11.82;;;9.60;99.90;;;;;;5028243;28;20784;-66
2023/12/17 10:44:50;;;;;;;17.05;11.93;;;9.60;99.90;;;;;;5022390;28;20065;-67
2023/12/17 10:47:22;;;;;;;17.38;11.60;;;9.60;99.90;;;;;;5024281;28;20045;-66
2023/12/17 10:49:48;;;;;;;15.15;11.13;;;9.60;99.90;;;;;;5021661;28;20038;-66
2023/12/17 10:52:14;;;;;;;12.90;11.00;;;9.90;99.90;;;;;;5022515;28;21216;-66
2023/12/17 10:54:40;;;;;;;13.20;10.88;;;9.60;99.90;;;;;;5022302;28;20534;-66
2023/12/17 10:57:11;;;;;;;14.18;10.65;;;9.60;99.90;;;;;;5025596;28;20092;-66
2023/12/17 10:59:38;;;;;;;16.42;12.05;;;9.60;99.90;;;;;;5021199;28;20046;-66
2023/12/17 11:02:07;;;;;;;19.45;12.30;;;9.60;99.90;;;;;;5021568;28;20072;-66
2023/12/17 11:04:33;;;;;;;14.10;9.70;;;9.70;99.90;;;;;;5009481;28;20514;-66
2023/12/17 11:06:59;;;;;;;14.45;10.45;;;9.60;99.90;;;;;;5023206;28;20042;-66
2023/12/17 11:09:25;;;;;;;18.17;9.95;;;9.60;99.90;;;;;;5023892;28;20049;-66
2023/12/17 11:11:53;;;;;;;12.93;9.45;;;9.60;99.90;;;;;;5022507;28;20057;-66
2023/12/17 11:14:19;;;;;;;15.25;9.82;;;9.50;99.90;;;;;;5004797;28;20144;-66
2023/12/17 11:16:45;;;;;;;13.38;9.55;;;9.50;99.90;;;;;;5022033;28;20033;-66
2023/12/17 11:19:12;;;;;;;12.73;9.95;;;9.50;99.90;;;;;;5024418;28;20041;-66
2023/12/17 11:21:40;;;;;;;14.93;9.38;;;9.50;99.90;;;;;;5024367;28;20096;-66
2023/12/17 11:24:07;;;;;;;11.52;8.95;;;9.50;99.90;;;;;;5022654;28;20061;-66
2023/12/17 11:26:39;;;;;;;12.82;9.40;;;9.50;99.90;;;;;;5020566;28;20050;-66
2023/12/17 11:29:39;;;;;;;15.95;9.05;;;9.50;99.90;;;;;;5023649;28;20041;-66
2023/12/17 11:32:09;;;;;;;13.35;8.88;;;9.50;99.90;;;;;;5021285;28;20048;-66
2023/12/17 11:34:36;;;;;;;10.38;9.05;;;9.50;99.90;;;;;;5021697;28;20412;-67
2023/12/17 11:37:03;;;;;;;12.25;9.05;;;9.60;99.90;;;;;;5038957;28;20037;-66
2023/12/17 11:39:30;;;;;;;12.60;9.77;;;9.50;99.90;;;;;;5027021;28;20037;-67
2023/12/17 11:41:56;;;;;;;13.50;10.88;;;9.40;99.90;;;;;;5026409;28;20134;-66
2023/12/17 11:44:23;;;;;;;14.10;10.90;;;9.50;99.90;;;;;;5021661;28;20131;-66
2023/12/17 11:46:49;;;;;;;12.80;11.05;;;9.50;99.90;;;;;;5017754;28;20522;-66
2023/12/17 11:49:25;;;;;;;15.20;11.13;;;9.50;99.90;;;;;;5020070;28;20431;-66
2023/12/17 11:51:51;;;;;;;13.88;11.27;;;9.40;99.90;;;;;;5022516;28;20049;-66
2023/12/17 11:54:18;;;;;;;14.77;11.55;;;9.50;99.90;;;;;;5022032;28;20049;-66
2023/12/17 11:56:44;;;;;;;16.95;12.32;;;9.40;99.90;;;;;;5021668;28;20046;-66
2023/12/17 11:59:10;;;;;;;15.45;13.10;;;9.40;99.90;;;;;;5022154;28;20402;-66
2023/12/17 12:01:35;;;;;;;13.20;11.80;;;9.50;99.90;;;;;;5020848;28;20048;-66
2023/12/17 12:04:01;;;;;;;14.70;11.77;;;9.40;99.90;;;;;;5022038;28;20504;-66
2023/12/17 12:06:28;;;;;;;14.40;12.55;;;9.40;99.90;;;;;;5020166;28;20066;-66
2023/12/17 12:08:54;;;;;;;17.88;13.23;;;9.40;99.90;;;;;;5024173;28;20073;-66
2023/12/17 12:11:28;;;;;;;16.63;13.05;;;9.50;99.90;;;;;;5020737;28;20448;-67
2023/12/17 12:13:54;;;;;;;16.38;13.88;;;9.40;99.90;;;;;;5023939;28;20041;-67
2023/12/17 12:16:20;;;;;;;16.08;12.68;;;9.50;99.90;;;;;;5021979;28;20044;-66
2023/12/17 12:18:46;;;;;;;19.40;14.05;;;9.50;99.90;;;;;;5020411;28;20404;-66
2023/12/17 12:21:21;;;;;;;17.85;14.27;;;9.50;99.90;;;;;;5022354;28;20041;-66
2023/12/17 12:23:55;;;;;;;19.52;15.18;;;9.50;99.90;;;;;;5031993;28;20136;-66
2023/12/17 12:26:22;;;;;;;18.27;15.32;;;9.40;99.90;;;;;;5026255;28;20699;-67
2023/12/17 12:28:58;;;;;;;19.02;14.82;;;9.40;99.90;;;;;;5019860;28;20378;-66
2023/12/17 12:31:25;;;;;;;21.10;16.98;;;9.50;99.90;;;;;;5020504;28;20587;-66
2023/12/17 12:33:54;;;;;;;22.13;18.38;;;9.60;99.90;;;;;;5021522;28;20038;-66
2023/12/17 12:36:20;;;;;;;24.75;18.20;;;9.50;99.90;;;;;;5025369;28;20103;-66
2023/12/17 12:38:58;;;;;;;27.27;18.75;;;9.50;99.90;;;;;;5018338;28;20392;-67
2023/12/17 12:41:23;;;;;;;20.50;18.15;;;9.50;99.90;;;;;;5021486;28;20187;-66
2023/12/17 12:43:52;;;;;;;22.75;17.58;;;9.50;99.90;;;;;;5020480;28;20120;-67